| Date | Time | Temp. (oF) | Dew Point (oF) | Rel. Hum. (%) | Press. (in.) | Wind Dir. | Wind Speed (mph) | Hourly Rainfall (in.) |
|
|---|---|---|---|---|---|---|---|---|---|
| 1 | 01/26 | 00:00 | 45 | 36 | 72 | 29.53 | NW | 3 | 0.00 |
| 2 | 01/25 | 23:00 | 46 | 36 | 68 | 29.54 | NW | 4 | 0.00 |
| 3 | 01/25 | 22:00 | 47 | 35 | 65 | 29.57 | NW | 4 | 0.00 |
| 4 | 01/25 | 21:00 | 48 | 35 | 63 | 29.58 | NW | 3 | 0.00 |
| 5 | 01/25 | 20:00 | 47 | 34 | 62 | 29.62 | NW | 4 | 0.00 |
| 6 | 01/25 | 19:00 | 45 | 34 | 67 | 29.64 | NW | 2 | 0.00 |
| 7 | 01/25 | 18:00 | 49 | 33 | 56 | 29.63 | NW | 0 | 0.00 |
| 8 | 01/25 | 17:00 | 54 | 33 | 46 | 29.62 | NW | 3 | 0.00 |
| 9 | 01/25 | 16:00 | 54 | 33 | 45 | 29.63 | NW | 4 | 0.00 |
| 10 | 01/25 | 15:00 | 55 | 33 | 45 | 29.66 | NW | 8 | 0.00 |
| 11 | 01/25 | 14:00 | 54 | 34 | 48 | 29.67 | NW | 8 | 0.00 |
| 12 | 01/25 | 13:00 | 53 | 35 | 52 | 29.68 | NW | 6 | 0.00 |
| 13 | 01/25 | 12:00 | 51 | 34 | 54 | 29.70 | NW | 3 | 0.00 |
| 14 | 01/25 | 11:00 | 49 | 35 | 59 | 29.71 | NW | 10 | 0.00 |
| 15 | 01/25 | 10:00 | 46 | 33 | 61 | 29.73 | NW | 6 | 0.00 |
| 16 | 01/25 | 09:00 | 41 | 33 | 75 | 29.72 | NW | 0 | 0.00 |
| 17 | 01/25 | 08:00 | 40 | 33 | 76 | 29.71 | NW | 2 | 0.00 |
| 18 | 01/25 | 07:00 | 41 | 33 | 75 | 29.69 | NW | 2 | 0.00 |
| 19 | 01/25 | 06:00 | 42 | 33 | 72 | 29.67 | NW | 11 | 0.00 |
| 20 | 01/25 | 05:00 | 42 | 33 | 73 | 29.65 | NW | 7 | 0.00 |
| 21 | 01/25 | 04:00 | 41 | 34 | 79 | 29.63 | NW | 10 | 0.00 |
| 22 | 01/25 | 03:00 | 41 | 34 | 78 | 29.63 | NW | 2 | 0.00 |
| 23 | 01/25 | 02:00 | 41 | 34 | 78 | 29.62 | NW | 3 | 0.00 |
| 24 | 01/25 | 01:00 | 41 | 34 | 78 | 29.61 | NW | 5 | 0.00 |